Nearby METAR Reports

 

CYFC - Fredericton Airp, New Brunswick
Distance from station: E 14km
Updated: Mon, 26-Jul-2021 8:00pm ADT
Clear
Clear
 Wind from SSE
Wind: SSE 7 km/h
Temperature: 23°C
Dew Point: 20°C
Humidity: 83%
Barometer: 1008.1 hPa
Clouds: Clear
Visibility: 14 km
2021/07/26 23:00 CYFC 262300Z AUTO 15004KT 9SM CLR 23/20 A2977 RMK SLP081 DENSITY ALT 1200FT
CYCX - Gagetown (can M, New Brunswick
Distance from station: E 22km
Updated: Mon, 26-Jul-2021 8:00pm ADT
Partly cloudy
Partly cloudy
 Wind from SSE
Wind: SSE 7 km/h
Temperature: 22°C
Dew Point: 20°C
Humidity: 88%
Barometer: 1008.1 hPa
Clouds: Partly cloudy
Visibility: 24 km
Cloud details: Few Clouds 549 m
Partly cloudy 6096 m
2021/07/26 23:00 CYCX 262300Z 16004KT 15SM FEW018 SCT200 22/20 A2977 RMK SC1CI3 DA1469FT SLP083
 
CYQM - Moncton Airport, New Brunswick
Distance from station: ENE 159km
Updated: Mon, 26-Jul-2021 8:00pm ADT
Mostly cloudy
Mostly cloudy
 Wind from SSW
Wind: SSW 7 km/h
Temperature: 21°C
Dew Point: 20°C
Humidity: 94%
Barometer: 1008.8 hPa
Clouds: Mostly cloudy
Visibility: 24 km
Cloud details: Few Clouds 366 m
Mostly cloudy 640 m
Mostly cloudy 1585 m
2021/07/26 23:00 CYQM 262300Z 21004KT 15SM FEW012 BKN021 BKN052 21/20 A2979 RMK CU1SC6SC1 CU TR SLP088 DENSITY ALT 1200FT
CYSJ - Saint John, New Brunswick
Distance from station: SE 88km
Updated: Mon, 26-Jul-2021 8:06pm ADT
Fog, Overcast
Fog, Overcast
 Wind from S
Wind: S 11 km/h
Temperature: 17°C
Dew Point: 17°C
Humidity: 100%
Barometer: 1009.5 hPa
Summary: Fog
Clouds: Overcast
Visibility: 0.4 km
Cloud details: Overcast 61 m
2021/07/26 23:06 CYSJ 262306Z 18006KT 1/4SM R05/2200V2400FT/N FG VV002 17/17 A2981 RMK FG8 SLP098 DENSITY ALT 900FT
 
CWPE - Point Lepreau, New Brunswick
Distance from station: SSE 90km
Updated: Mon, 26-Jul-2021 8:00pm ADT

 Wind from E
Wind: E 2 km/h
Temperature: 15°C
Dew Point: 15°C
Humidity: 100%
2021/07/26 23:00 CWPE 262300Z AUTO 10001KT 15/15 RMK AO1 SLP093 T01490149 55001
CYHZ - Halifax Intl Arp, Nova Scotia
Distance from station: ESE 273km
Updated: Mon, 26-Jul-2021 8:23pm ADT
Overcast
Overcast
 Wind from S
Wind: S 11 km/h
Temperature: 20°C
Dew Point: 19°C
Humidity: 94%
Barometer: 1010.2 hPa
Clouds: Overcast
Visibility: 24 km
Cloud details: Mostly cloudy 152 m
Overcast 7620 m
2021/07/26 23:23 CYHZ 262323Z 19006KT 15SM BKN005 OVC250 20/19 A2983 RMK SF6CI2 SLP103 DENSITY ALT 1300FT
 
CYZX - Greenwood (can M, Nova Scotia
Distance from station: SE 169km
Updated: Mon, 26-Jul-2021 8:00pm ADT
Mostly cloudy
Mostly cloudy
 Wind from W
Wind: W 4 km/h
Temperature: 23°C
Dew Point: 19°C
Humidity: 78%
Barometer: 1009.5 hPa
Clouds: Mostly cloudy
Visibility: 24 km
Cloud details: Few Clouds 610 m
Partly cloudy 1036 m
Mostly cloudy 7620 m
2021/07/26 23:00 CYZX 262300Z 27002KT 15SM FEW020 SCT034 BKN250 23/19 A2981 RMK SC2SC2CI3 CIG PDMTLY TRANSPARENT SLP094
CYQI - Yarmouth Airport, Nova Scotia
Distance from station: SSE 230km
Updated: Mon, 26-Jul-2021 8:10pm ADT
Fog, Overcast
Fog, Overcast
 Wind from S
Wind: S 7 km/h
Temperature: 17°C
Dew Point: 16°C
Humidity: 94%
Barometer: 1010.2 hPa
Summary: Fog
Clouds: Overcast
Visibility: 0.4 km
Cloud details: Overcast 61 m
2021/07/26 23:10 CYQI 262310Z 19004KT 1/4SM FG VV002 17/16 A2983 RMK FG8 SLP104 DENSITY ALT 500FT
 
KHUL - Houlton, Maine, USA
Distance from station: WNW 90km
Updated: Mon, 26-Jul-2021 7:53pm ADT
Few Clouds
Few Clouds
 Wind from S
Wind: S 6 km/h
Temperature: 24°C
Dew Point: 18°C
Humidity: 69%
Barometer: 1007.5 hPa
Clouds: Few Clouds
Visibility: 13 km
Cloud details: Few Clouds 1036 m
2021/07/26 22:53 KHUL 262253Z AUTO 19003KT 8SM FEW034 24/18 A2975 RMK AO2 SLP071 T02390183
KPQI - Presque Isle, Maine, USA
Distance from station: NW 137km
Updated: Mon, 26-Jul-2021 7:56pm ADT
Clear
Clear
 Wind from SSW
Wind: SSW 6 km/h
Temperature: 24°C
Dew Point: 17°C
Humidity: 65%
Barometer: 1007.8 hPa
Clouds: Clear
Visibility: 16 km
2021/07/26 22:56 KPQI 262256Z AUTO 21003KT 10SM CLR 24/17 A2976 RMK AO2 SLP098 T02440172
 
KCAR - Caribou, Maine, USA
Distance from station: NW 151km
Updated: Mon, 26-Jul-2021 7:54pm ADT
Clear
Clear
 Wind from SW
Wind: SW 7 km/h
Temperature: 25°C
Dew Point: 16°C
Humidity: 57%
Barometer: 1007.1 hPa
Clouds: Clear
Visibility: 16 km
2021/07/26 22:54 KCAR 262254Z AUTO 22004KT 10SM CLR 25/16 A2974 RMK AO2 SLP071 T02500161
KMLT - Millinocket, Maine, USA
Distance from station: W 157km
Updated: Mon, 26-Jul-2021 7:53pm ADT
Partly cloudy
Partly cloudy
 Wind from E
Wind: E 6 km/h
Temperature: 26°C
Dew Point: 19°C
Humidity: 65%
Barometer: 1008.1 hPa
Clouds: Partly cloudy
Visibility: 13 km
Cloud details: Partly cloudy 2134 m
2021/07/26 22:53 KMLT 262253Z AUTO 09003KT 8SM SCT070 26/19 A2977 RMK AO2 SLP084 T02610194 TSNO
 
KBGR - Bangor, Maine, USA
Distance from station: SW 203km
Updated: Mon, 26-Jul-2021 7:53pm ADT
Clear
Clear
 Wind from S
Wind: S 11 km/h
Temperature: 25°C
Dew Point: 21°C
Humidity: 79%
Barometer: 1008.5 hPa
Clouds: Clear
Visibility: 13 km
2021/07/26 22:53 KBGR 262253Z 19006KT 8SM CLR 25/21 A2978 RMK AO2 SLP083 T02500206
KBHB - Bar Harbor, Maine, USA
Distance from station: SW 204km
Updated: Mon, 26-Jul-2021 7:56pm ADT
Clear
Clear
 Wind from SSW
Wind: SSW 15 km/h
Temperature: 21°C
Dew Point: 18°C
Humidity: 83%
Barometer: 1009.5 hPa
Clouds: Clear
Visibility: 16 km
2021/07/26 22:56 KBHB 262256Z AUTO 21008KT 10SM CLR 21/18 A2981 RMK AO2 SLP095 T02060183
 
CWVU - Brier Island(Aut, Nova Scotia
Distance from station: S 177km
Updated: Mon, 26-Jul-2021 8:00pm ADT

 Wind from SE
Wind: SE 9 km/h
Temperature: 13°C
Dew Point: 13°C
Humidity: 100%
2021/07/26 23:00 CWVU 262300Z AUTO 14005KT 13/13 RMK AO1 SLP099 T01250125 55000
CXNP - Nappan (auto), Nova Scotia
Distance from station: E 191km
Updated: Mon, 26-Jul-2021 8:00pm ADT

 Wind from SW
Wind: SW 13 km/h
Temperature: 21°C
Dew Point: 18°C
Humidity: 83%
2021/07/26 23:00 CXNP 262300Z AUTO 22007KT 21/18 RMK AO1 SLP094 T02110179 53002
 
CXKT - Kentville (autob, Nova Scotia
Distance from station: ESE 193km
Updated: Mon, 26-Jul-2021 8:00pm ADT

 Wind from calm
Wind: Calm
Temperature: 22°C
Dew Point: 19°C
Humidity: 83%
2021/07/26 23:00 CXKT 262300Z AUTO 00000KT 22/19 RMK AO1 SLP094 T02200188 53005
CWKG - Kejimkujik (au8), Nova Scotia
Distance from station: SE 197km
Updated: Mon, 26-Jul-2021 8:00pm ADT

 Wind from WSW
Wind: WSW 9 km/h
Temperature: 22°C
Dew Point: 20°C
Humidity: 88%
2021/07/26 23:00 CWKG 262300Z AUTO 24005KT 22/20 RMK AO1 SLP099 T02240203 53002
 
KFVE - Frenchville, Maine, USA
Distance from station: NW 201km
Updated: Mon, 26-Jul-2021 7:53pm ADT
Few Clouds
Few Clouds
 Wind from SW
Wind: SW 6 km/h
Temperature: 24°C
Dew Point: 15°C
Humidity: 57%
Barometer: 1007.1 hPa
Clouds: Few Clouds
Visibility: 16 km
Cloud details: Few Clouds 1494 m
2021/07/26 22:53 KFVE 262253Z AUTO 23003KT 10SM FEW049 24/15 A2974 RMK AO2 SLP066 T02390150
CZBF - Bathurst Arpt(Aw, New Brunswick
Distance from station: NNE 208km
Updated: Mon, 26-Jul-2021 8:00pm ADT
Clear
Clear
 Wind from ENE
Wind: ENE 6 km/h
Temperature: 20°C
Dew Point: 19°C
Humidity: 94%
Barometer: 1007.5 hPa
Clouds: Clear
Visibility: 14 km
2021/07/26 23:00 CZBF 262300Z AUTO 07003KT 020V080 9SM CLR 20/19 A2975 RMK LTNG DIST SE SLP077 DENSITY ALT 1100FT
 
CERM - Edmunston, New Brunswick
Distance from station: NW 213km
Updated: Mon, 26-Jul-2021 8:00pm ADT

 Wind from S
Wind: S 4 km/h
Temperature: 24°C
Dew Point: 17°C
Humidity: 65%
2021/07/26 23:00 CERM 262300Z AUTO 18002KT 24/17 RMK AO1 SLP061 T02430172 55004
KGNR - Greenville, Maine, USA
Distance from station: W 226km
Updated: Mon, 26-Jul-2021 7:56pm ADT

 Wind from varies
Wind: varies 6 km/h
Temperature: 23°C
Dew Point: 14°C
Humidity: 57%
Barometer: 1009.1 hPa
2021/07/26 22:56 KGNR 262256Z AUTO VRB03KT 23/14 A2980 RMK AO1 SLP088 T02330144
 
CWSD - Summerside (auto, PEI
Distance from station: ENE 228km
Updated: Mon, 26-Jul-2021 8:00pm ADT

 Wind from SSW
Wind: SSW 7 km/h
Temperature: 21°C
Dew Point: 19°C
Humidity: 88%
2021/07/26 23:00 CWSD 262300Z AUTO 20004KT 21/19 RMK AO1 SLP091 T02080186 55000
K40B - Clayton Lake, Maine, USA
Distance from station: WNW 233km
Updated: Mon, 26-Jul-2021 8:16pm ADT

 Wind from calm
Wind: Calm
Temperature: 23°C
Dew Point: 15°C
Humidity: 61%
Barometer: 1008.1 hPa
2021/07/26 23:16 K40B 262316Z AUTO 00000KT 23/15 A2977 RMK AO1 SLP072 T02250152 53003
 
CZCR - Charlo Airport, New Brunswick
Distance from station: N 236km
Updated: Mon, 26-Jul-2021 8:00pm ADT

 Wind from E
Wind: E 11 km/h
Temperature: 20°C
Dew Point: 18°C
Humidity: 88%
2021/07/26 23:00 CZCR 262300Z AUTO 08006KT 20/18 RMK AO1 SLP060 T02040178 56004
CWNE - North Point (aut, Ontario
Distance from station: NE 246km
Updated: Mon, 26-Jul-2021 8:00pm ADT

 Wind from SSE
Wind: SSE 7 km/h
Temperature: 20°C
Dew Point: 18°C
Humidity: 88%
2021/07/26 23:00 CWNE 262300Z AUTO 16004KT 20/18 RMK AO1 SLP078 T01970177 56002
 
CXLB - Lunenburg, Nova Scotia
Distance from station: SE 250km
Updated: Mon, 26-Jul-2021 8:00pm ADT

 Wind from SSW
Wind: SSW 11 km/h
Temperature: 18°C
Dew Point: 18°C
Humidity: 100%
2021/07/26 23:00 CXLB 262300Z AUTO 20006KT 18/18 RMK AO1 SLP093 T01750175 53002
CZDB - Debert, Nova Scotia
Distance from station: E 255km
Updated: Mon, 26-Jul-2021 8:00pm ADT

 Wind from SW
Wind: SW 6 km/h
Temperature: 23°C
Dew Point: 18°C
Humidity: 74%
2021/07/26 23:00 CZDB 262300Z AUTO 22003KT 23/18 RMK AO1 SLP098 T02290182 55001
 
CWOC - New Carlisle1, Quebec
Distance from station: NNE 262km
Updated: Mon, 26-Jul-2021 8:00pm ADT

 Wind from ENE
Wind: ENE 6 km/h
Temperature: 20°C
Dew Point: 17°C
Humidity: 83%
2021/07/26 23:00 CWOC 262300Z AUTO 07003KT 20/17 RMK AO1 SLP069 T01950170 56001
CWWE - Western Head (ma, Nova Scotia
Distance from station: SE 264km
Updated: Mon, 26-Jul-2021 8:00pm ADT

 Wind from SSW
Wind: SSW 17 km/h
Temperature: 16°C
2021/07/26 23:00 CWWE 262300Z AUTO 21009KT 16/ RMK AO1 SLP102 T0161 53003
 
KRKD - Rockland/Knox, Maine, USA
Distance from station: SW 274km
Updated: Mon, 26-Jul-2021 7:56pm ADT
Clear
Clear
 Wind from SSW
Wind: SSW 7 km/h
Temperature: 22°C
Dew Point: 19°C
Humidity: 83%
Barometer: 1009.5 hPa
Clouds: Clear
Visibility: 16 km
2021/07/26 22:56 KRKD 262256Z AUTO 21004KT 10SM CLR 22/19 A2981 RMK AO2 SLP095 T02220194
CAHR - Harrington Cda, Ontario
Distance from station: ENE 277km
Updated: Mon, 26-Jul-2021 8:00pm ADT

 Wind from SSW
Wind: SSW 6 km/h
Temperature: 21°C
Dew Point: 18°C
Humidity: 83%
2021/07/26 23:00 CAHR 262300Z AUTO 21003KT 21/18 RMK AO1 SLP092 T02080179 53001
 
KWVL - Waterville, Maine, USA
Distance from station: WSW 277km
Updated: Mon, 26-Jul-2021 7:56pm ADT
Clear
Clear
 Wind from calm
Wind: Calm
Temperature: 24°C
Dew Point: 19°C
Humidity: 74%
Barometer: 1008.5 hPa
Clouds: Clear
Visibility: 11 km
2021/07/26 22:56 KWVL 262256Z AUTO 00000KT 7SM CLR 24/19 A2978 RMK AO2 SLP109 T02440194
CYYG - Charlottetown Ar, PEI
Distance from station: E 280km
Updated: Mon, 26-Jul-2021 8:00pm ADT
Overcast
Overcast
 Wind from S
Wind: S 7 km/h
Temperature: 21°C
Dew Point: 19°C
Humidity: 88%
Barometer: 1009.1 hPa
Clouds: Overcast
Visibility: 24 km
Cloud details: Mostly cloudy 1829 m
Overcast 7315 m
2021/07/26 23:00 CYYG 262300Z 17004KT 15SM BKN060 OVC240 21/19 A2980 RMK SC5CI3 SLP094 DENSITY ALT 1100FT
 
CXMI - Mcnabs Island, Nova Scotia
Distance from station: ESE 284km
Updated: Mon, 26-Jul-2021 8:00pm ADT

 Wind from SSW
Wind: SSW 13 km/h
Temperature: 19°C
Dew Point: 18°C
Humidity: 94%
2021/07/26 23:00 CXMI 262300Z AUTO 21007KT 19/18 RMK AO1 SLP098 T01850179 53004
KAUG - Augusta, Maine, USA
Distance from station: SW 298km
Updated: Mon, 26-Jul-2021 7:53pm ADT
Haze, Clear
Haze, Clear
 Wind from SW
Wind: SW 7 km/h
Temperature: 25°C
Dew Point: 17°C
Humidity: 61%
Barometer: 1009.5 hPa
Summary: Haze
Clouds: Clear
Visibility: 6 km
2021/07/26 22:53 KAUG 262253Z AUTO 23004KT 4SM HZ CLR 25/17 A2981 RMK AO2 SLP094 T02500172
 
CWST - La Pocatiere, Quebec
Distance from station: NW 303km
Updated: Mon, 26-Jul-2021 6:00pm ADT
NOT Current

 Wind from SW
Wind: SW 28 km/h, Gust: 41 km/h
Temperature: 25°C
Dew Point: 18°C
Humidity: 65%
2021/07/26 21:00 CWST 262100Z AUTO 23015G22KT 25/18 RMK AO1 PK WND 22022/2059 SLP058 T02490182
CWNH - Riviere Du Loup, Quebec
Distance from station: NW 304km
Updated: Mon, 26-Jul-2021 8:00pm ADT

 Wind from SSW
Wind: SSW 6 km/h
Temperature: 16°C
Dew Point: 16°C
Humidity: 100%
2021/07/26 23:00 CWNH 262300Z AUTO 20003KT 16/16 RMK AO1 4PAST HR 3014 SLP081 P0025 T01620155 50064
 
CWBK - Caribou Point(Ma, Nova Scotia
Distance from station: E 312km
Updated: Mon, 26-Jul-2021 8:00pm ADT

 Wind from ESE
Wind: ESE 2 km/h
Temperature: 20°C
Dew Point: 18°C
Humidity: 88%
2021/07/26 23:00 CWBK 262300Z AUTO 12001KT 20/18 RMK AO1 SLP096 T01970184 52002
CWHV - Beauceville, Quebec
Distance from station: W 317km
Updated: Mon, 26-Jul-2021 8:00pm ADT

 Wind from WNW
Wind: WNW 2 km/h
Temperature: 23°C
Dew Point: 17°C
Humidity: 69%
2021/07/26 23:00 CWHV 262300Z AUTO 29001KT 23/17 RMK AO1 SLP083 T02290173 51001
 
KIWI - Wiscasset, Maine, USA
Distance from station: SW 318km
Updated: Mon, 26-Jul-2021 7:53pm ADT
Clear
Clear
 Wind from varies
Wind: varies 6 km/h
Temperature: 24°C
Dew Point: 21°C
Humidity: 83%
Barometer: 1009.8 hPa
Clouds: Clear
Visibility: 13 km
2021/07/26 22:53 KIWI 262253Z AUTO VRB03KT 8SM CLR 24/21 A2982 RMK AO2 SLP097 T02440206